sensor_id;sensor_type;location;lat;lon;timestamp;temperature;humidity
9410;DHT22;4744;52.576;13.568;2023-07-22T00:00:38;13.80;1.00
9410;DHT22;4744;52.576;13.568;2023-07-22T00:03:05;13.80;1.00
9410;DHT22;4744;52.576;13.568;2023-07-22T00:05:32;13.70;1.00
9410;DHT22;4744;52.576;13.568;2023-07-22T00:08:00;13.70;1.00
9410;DHT22;4744;52.576;13.568;2023-07-22T00:10:27;13.70;1.00
9410;DHT22;4744;52.576;13.568;2023-07-22T00:12:54;13.70;1.00
9410;DHT22;4744;52.576;13.568;2023-07-22T00:15:22;13.70;1.00
9410;DHT22;4744;52.576;13.568;2023-07-22T00:17:51;13.70;1.00
9410;DHT22;4744;52.576;13.568;2023-07-22T00:20:18;13.70;1.00
9410;DHT22;4744;52.576;13.568;2023-07-22T00:22:45;13.70;1.00
9410;DHT22;4744;52.576;13.568;2023-07-22T00:25:14;13.70;1.00
9410;DHT22;4744;52.576;13.568;2023-07-22T00:27:41;13.70;1.00
9410;DHT22;4744;52.576;13.568;2023-07-22T00:30:09;13.70;1.00
9410;DHT22;4744;52.576;13.568;2023-07-22T00:32:36;13.70;1.00
9410;DHT22;4744;52.576;13.568;2023-07-22T00:35:04;13.60;1.00
9410;DHT22;4744;52.576;13.568;2023-07-22T00:37:31;13.60;1.00
9410;DHT22;4744;52.576;13.568;2023-07-22T00:39:58;13.70;1.00
9410;DHT22;4744;52.576;13.568;2023-07-22T00:42:28;13.70;1.00
9410;DHT22;4744;52.576;13.568;2023-07-22T00:44:54;13.70;1.00
9410;DHT22;4744;52.576;13.568;2023-07-22T00:47:22;13.80;1.00
9410;DHT22;4744;52.576;13.568;2023-07-22T00:49:49;13.80;1.00
9410;DHT22;4744;52.576;13.568;2023-07-22T00:52:17;13.80;1.00
9410;DHT22;4744;52.576;13.568;2023-07-22T00:54:44;13.80;1.00
9410;DHT22;4744;52.576;13.568;2023-07-22T00:57:11;13.80;1.00
9410;DHT22;4744;52.576;13.568;2023-07-22T00:59:40;13.90;1.00
9410;DHT22;4744;52.576;13.568;2023-07-22T01:02:07;13.90;1.00
9410;DHT22;4744;52.576;13.568;2023-07-22T01:04:35;13.90;1.00
9410;DHT22;4744;52.576;13.568;2023-07-22T01:07:04;13.90;1.00
9410;DHT22;4744;52.576;13.568;2023-07-22T01:09:35;13.90;1.00
9410;DHT22;4744;52.576;13.568;2023-07-22T01:12:04;13.90;1.00
9410;DHT22;4744;52.576;13.568;2023-07-22T01:14:32;14.00;1.00
9410;DHT22;4744;52.576;13.568;2023-07-22T01:17:01;14.00;1.00
9410;DHT22;4744;52.576;13.568;2023-07-22T01:19:29;14.00;1.00
9410;DHT22;4744;52.576;13.568;2023-07-22T01:21:57;14.00;1.00
9410;DHT22;4744;52.576;13.568;2023-07-22T01:24:27;14.00;1.00
9410;DHT22;4744;52.576;13.568;2023-07-22T01:26:55;14.00;1.00
9410;DHT22;4744;52.576;13.568;2023-07-22T01:29:22;14.00;1.00
9410;DHT22;4744;52.576;13.568;2023-07-22T01:31:51;14.00;1.00
9410;DHT22;4744;52.576;13.568;2023-07-22T01:34:19;14.10;1.00
9410;DHT22;4744;52.576;13.568;2023-07-22T01:36:47;14.10;1.00
9410;DHT22;4744;52.576;13.568;2023-07-22T01:39:14;14.10;1.00
9410;DHT22;4744;52.576;13.568;2023-07-22T01:41:43;14.10;1.00
9410;DHT22;4744;52.576;13.568;2023-07-22T01:44:10;14.10;1.00
9410;DHT22;4744;52.576;13.568;2023-07-22T01:46:37;14.10;1.00
9410;DHT22;4744;52.576;13.568;2023-07-22T01:49:05;14.20;1.00
9410;DHT22;4744;52.576;13.568;2023-07-22T01:51:34;14.20;1.00
9410;DHT22;4744;52.576;13.568;2023-07-22T01:54:03;14.20;1.00
9410;DHT22;4744;52.576;13.568;2023-07-22T01:56:30;14.20;1.00
9410;DHT22;4744;52.576;13.568;2023-07-22T01:58:58;14.20;1.00
9410;DHT22;4744;52.576;13.568;2023-07-22T02:01:25;14.20;1.00
9410;DHT22;4744;52.576;13.568;2023-07-22T02:03:53;14.20;1.00
9410;DHT22;4744;52.576;13.568;2023-07-22T02:06:20;14.20;1.00
9410;DHT22;4744;52.576;13.568;2023-07-22T02:08:47;14.20;1.00
9410;DHT22;4744;52.576;13.568;2023-07-22T02:11:14;14.20;1.00
9410;DHT22;4744;52.576;13.568;2023-07-22T02:13:41;14.20;1.00
9410;DHT22;4744;52.576;13.568;2023-07-22T02:16:09;14.20;1.00
9410;DHT22;4744;52.576;13.568;2023-07-22T02:18:38;14.20;1.00
9410;DHT22;4744;52.576;13.568;2023-07-22T02:21:05;14.20;1.00
9410;DHT22;4744;52.576;13.568;2023-07-22T02:23:31;14.20;1.00
9410;DHT22;4744;52.576;13.568;2023-07-22T02:25:58;14.20;1.00
9410;DHT22;4744;52.576;13.568;2023-07-22T02:28:25;14.10;1.00
9410;DHT22;4744;52.576;13.568;2023-07-22T02:30:53;14.10;1.00
9410;DHT22;4744;52.576;13.568;2023-07-22T02:33:21;14.10;1.00
9410;DHT22;4744;52.576;13.568;2023-07-22T02:35:49;14.10;1.00
9410;DHT22;4744;52.576;13.568;2023-07-22T02:38:16;14.10;1.00
9410;DHT22;4744;52.576;13.568;2023-07-22T02:40:43;14.10;1.00
9410;DHT22;4744;52.576;13.568;2023-07-22T02:43:10;14.10;1.00
9410;DHT22;4744;52.576;13.568;2023-07-22T02:45:37;14.10;1.00
9410;DHT22;4744;52.576;13.568;2023-07-22T02:48:04;14.00;1.00
9410;DHT22;4744;52.576;13.568;2023-07-22T02:50:32;14.00;1.00
9410;DHT22;4744;52.576;13.568;2023-07-22T02:52:59;14.00;1.00
9410;DHT22;4744;52.576;13.568;2023-07-22T02:55:26;13.90;1.00
9410;DHT22;4744;52.576;13.568;2023-07-22T02:57:54;13.90;1.00
9410;DHT22;4744;52.576;13.568;2023-07-22T03:00:21;13.90;1.00
9410;DHT22;4744;52.576;13.568;2023-07-22T03:02:50;13.80;1.00
9410;DHT22;4744;52.576;13.568;2023-07-22T03:05:18;13.80;1.00
9410;DHT22;4744;52.576;13.568;2023-07-22T03:07:46;13.80;1.00
9410;DHT22;4744;52.576;13.568;2023-07-22T03:10:13;13.70;1.00
9410;DHT22;4744;52.576;13.568;2023-07-22T03:12:40;13.70;1.00
9410;DHT22;4744;52.576;13.568;2023-07-22T03:15:08;13.70;1.00
9410;DHT22;4744;52.576;13.568;2023-07-22T03:17:35;13.70;1.00
9410;DHT22;4744;52.576;13.568;2023-07-22T03:20:02;13.70;1.00
9410;DHT22;4744;52.576;13.568;2023-07-22T03:22:37;13.60;1.00
9410;DHT22;4744;52.576;13.568;2023-07-22T03:25:05;13.60;1.00
9410;DHT22;4744;52.576;13.568;2023-07-22T03:27:36;13.60;1.00
9410;DHT22;4744;52.576;13.568;2023-07-22T03:30:04;13.50;1.00
9410;DHT22;4744;52.576;13.568;2023-07-22T03:32:32;13.50;1.00
9410;DHT22;4744;52.576;13.568;2023-07-22T03:34:59;13.50;1.00
9410;DHT22;4744;52.576;13.568;2023-07-22T03:37:27;13.50;1.00
9410;DHT22;4744;52.576;13.568;2023-07-22T03:39:54;13.50;1.00
9410;DHT22;4744;52.576;13.568;2023-07-22T03:42:22;13.50;1.00
9410;DHT22;4744;52.576;13.568;2023-07-22T03:44:49;13.40;1.00
9410;DHT22;4744;52.576;13.568;2023-07-22T03:47:16;13.40;1.00
9410;DHT22;4744;52.576;13.568;2023-07-22T03:49:43;13.40;1.00
9410;DHT22;4744;52.576;13.568;2023-07-22T03:52:11;13.40;1.00
9410;DHT22;4744;52.576;13.568;2023-07-22T03:54:39;13.40;1.00
9410;DHT22;4744;52.576;13.568;2023-07-22T03:57:06;13.40;1.00
9410;DHT22;4744;52.576;13.568;2023-07-22T03:59:35;13.40;1.00
9410;DHT22;4744;52.576;13.568;2023-07-22T04:02:02;13.40;1.00
9410;DHT22;4744;52.576;13.568;2023-07-22T04:04:29;13.40;1.00
9410;DHT22;4744;52.576;13.568;2023-07-22T04:06:56;13.40;1.00
9410;DHT22;4744;52.576;13.568;2023-07-22T04:09:23;13.40;1.00
9410;DHT22;4744;52.576;13.568;2023-07-22T04:11:49;13.40;1.00
9410;DHT22;4744;52.576;13.568;2023-07-22T04:14:17;13.40;1.00
9410;DHT22;4744;52.576;13.568;2023-07-22T04:16:45;13.40;1.00
9410;DHT22;4744;52.576;13.568;2023-07-22T04:19:12;13.40;1.00
9410;DHT22;4744;52.576;13.568;2023-07-22T04:21:39;13.40;1.00
9410;DHT22;4744;52.576;13.568;2023-07-22T04:24:05;13.50;1.00
9410;DHT22;4744;52.576;13.568;2023-07-22T04:26:32;13.50;1.00
9410;DHT22;4744;52.576;13.568;2023-07-22T04:29:00;13.50;1.00
9410;DHT22;4744;52.576;13.568;2023-07-22T04:31:27;13.50;1.00
9410;DHT22;4744;52.576;13.568;2023-07-22T04:33:55;13.50;1.00
9410;DHT22;4744;52.576;13.568;2023-07-22T04:36:24;13.50;1.00
9410;DHT22;4744;52.576;13.568;2023-07-22T04:38:50;13.50;1.00
9410;DHT22;4744;52.576;13.568;2023-07-22T04:41:18;13.60;1.00
9410;DHT22;4744;52.576;13.568;2023-07-22T04:43:45;13.70;1.00
9410;DHT22;4744;52.576;13.568;2023-07-22T04:46:13;13.70;1.00
9410;DHT22;4744;52.576;13.568;2023-07-22T04:48:40;13.70;1.00
9410;DHT22;4744;52.576;13.568;2023-07-22T04:51:09;13.80;1.00
9410;DHT22;4744;52.576;13.568;2023-07-22T04:53:36;13.90;1.00
9410;DHT22;4744;52.576;13.568;2023-07-22T04:56:03;13.90;1.00
9410;DHT22;4744;52.576;13.568;2023-07-22T04:58:30;14.00;1.00
9410;DHT22;4744;52.576;13.568;2023-07-22T05:00:58;14.00;1.00
9410;DHT22;4744;52.576;13.568;2023-07-22T05:03:25;14.00;1.00
9410;DHT22;4744;52.576;13.568;2023-07-22T05:05:52;14.10;1.00
9410;DHT22;4744;52.576;13.568;2023-07-22T05:08:20;14.20;1.00
9410;DHT22;4744;52.576;13.568;2023-07-22T05:10:47;14.20;1.00
9410;DHT22;4744;52.576;13.568;2023-07-22T05:13:14;14.30;1.00
9410;DHT22;4744;52.576;13.568;2023-07-22T05:15:42;14.30;1.00
9410;DHT22;4744;52.576;13.568;2023-07-22T05:18:09;14.40;1.00
9410;DHT22;4744;52.576;13.568;2023-07-22T05:20:37;14.40;1.00
9410;DHT22;4744;52.576;13.568;2023-07-22T05:23:04;14.50;1.00
9410;DHT22;4744;52.576;13.568;2023-07-22T05:25:32;14.60;1.00
9410;DHT22;4744;52.576;13.568;2023-07-22T05:27:59;14.70;1.00
9410;DHT22;4744;52.576;13.568;2023-07-22T05:30:26;14.70;1.00
9410;DHT22;4744;52.576;13.568;2023-07-22T05:32:53;14.80;1.00
9410;DHT22;4744;52.576;13.568;2023-07-22T05:35:20;14.90;1.00
9410;DHT22;4744;52.576;13.568;2023-07-22T05:37:47;14.90;1.00
9410;DHT22;4744;52.576;13.568;2023-07-22T05:40:14;15.00;1.00
9410;DHT22;4744;52.576;13.568;2023-07-22T05:42:42;15.10;1.00
9410;DHT22;4744;52.576;13.568;2023-07-22T05:45:10;15.20;1.00
9410;DHT22;4744;52.576;13.568;2023-07-22T05:47:39;15.20;1.00
9410;DHT22;4744;52.576;13.568;2023-07-22T05:50:07;15.30;1.00
9410;DHT22;4744;52.576;13.568;2023-07-22T05:52:34;15.20;1.00
9410;DHT22;4744;52.576;13.568;2023-07-22T05:55:01;15.30;1.00
9410;DHT22;4744;52.576;13.568;2023-07-22T05:57:28;15.20;1.00
9410;DHT22;4744;52.576;13.568;2023-07-22T05:59:56;15.20;1.00
9410;DHT22;4744;52.576;13.568;2023-07-22T06:02:23;15.20;1.00
9410;DHT22;4744;52.576;13.568;2023-07-22T06:04:50;15.20;1.00
9410;DHT22;4744;52.576;13.568;2023-07-22T06:07:17;15.20;1.00
9410;DHT22;4744;52.576;13.568;2023-07-22T06:09:43;15.20;1.00
9410;DHT22;4744;52.576;13.568;2023-07-22T06:12:10;15.20;1.00
9410;DHT22;4744;52.576;13.568;2023-07-22T06:14:38;15.30;1.00
9410;DHT22;4744;52.576;13.568;2023-07-22T06:17:06;15.30;1.00
9410;DHT22;4744;52.576;13.568;2023-07-22T06:19:33;15.30;1.00
9410;DHT22;4744;52.576;13.568;2023-07-22T06:22:00;15.40;1.00
9410;DHT22;4744;52.576;13.568;2023-07-22T06:24:27;15.40;1.00
9410;DHT22;4744;52.576;13.568;2023-07-22T06:26:53;15.50;1.00
9410;DHT22;4744;52.576;13.568;2023-07-22T06:29:20;15.50;1.00
9410;DHT22;4744;52.576;13.568;2023-07-22T06:31:47;15.60;1.00
9410;DHT22;4744;52.576;13.568;2023-07-22T06:34:15;15.70;1.00
9410;DHT22;4744;52.576;13.568;2023-07-22T06:36:42;15.70;1.00
9410;DHT22;4744;52.576;13.568;2023-07-22T06:39:09;15.80;1.00
9410;DHT22;4744;52.576;13.568;2023-07-22T06:41:36;15.80;1.00
9410;DHT22;4744;52.576;13.568;2023-07-22T06:44:03;15.90;1.00
9410;DHT22;4744;52.576;13.568;2023-07-22T06:46:30;15.90;1.00
9410;DHT22;4744;52.576;13.568;2023-07-22T06:48:57;16.00;1.00
9410;DHT22;4744;52.576;13.568;2023-07-22T06:51:25;16.10;1.00
9410;DHT22;4744;52.576;13.568;2023-07-22T06:53:52;16.00;1.00
9410;DHT22;4744;52.576;13.568;2023-07-22T06:56:19;16.00;1.00
9410;DHT22;4744;52.576;13.568;2023-07-22T06:58:46;16.10;1.00
9410;DHT22;4744;52.576;13.568;2023-07-22T07:01:13;16.10;1.00
9410;DHT22;4744;52.576;13.568;2023-07-22T07:03:40;16.20;1.00
9410;DHT22;4744;52.576;13.568;2023-07-22T07:06:07;16.30;1.00
9410;DHT22;4744;52.576;13.568;2023-07-22T07:08:35;16.40;1.00
9410;DHT22;4744;52.576;13.568;2023-07-22T07:11:03;16.50;1.00
9410;DHT22;4744;52.576;13.568;2023-07-22T07:13:30;16.40;1.00
9410;DHT22;4744;52.576;13.568;2023-07-22T07:15:57;16.40;1.00
9410;DHT22;4744;52.576;13.568;2023-07-22T07:18:43;16.50;1.00
9410;DHT22;4744;52.576;13.568;2023-07-22T07:21:10;16.50;1.00
9410;DHT22;4744;52.576;13.568;2023-07-22T07:23:38;16.60;1.00
9410;DHT22;4744;52.576;13.568;2023-07-22T07:26:05;16.60;1.00
9410;DHT22;4744;52.576;13.568;2023-07-22T07:28:32;16.60;1.00
9410;DHT22;4744;52.576;13.568;2023-07-22T07:30:59;16.60;1.00
9410;DHT22;4744;52.576;13.568;2023-07-22T07:33:26;16.60;1.00
9410;DHT22;4744;52.576;13.568;2023-07-22T07:35:53;16.60;1.00
9410;DHT22;4744;52.576;13.568;2023-07-22T07:38:20;16.70;1.00
9410;DHT22;4744;52.576;13.568;2023-07-22T07:40:51;16.70;1.00
9410;DHT22;4744;52.576;13.568;2023-07-22T07:43:18;16.90;1.00
9410;DHT22;4744;52.576;13.568;2023-07-22T07:45:45;17.00;1.00
9410;DHT22;4744;52.576;13.568;2023-07-22T07:48:12;17.00;1.00
9410;DHT22;4744;52.576;13.568;2023-07-22T07:50:39;17.10;1.00
9410;DHT22;4744;52.576;13.568;2023-07-22T07:53:06;17.20;1.00
9410;DHT22;4744;52.576;13.568;2023-07-22T07:55:33;17.20;1.00
9410;DHT22;4744;52.576;13.568;2023-07-22T07:58:01;17.20;1.00
9410;DHT22;4744;52.576;13.568;2023-07-22T08:00:28;17.20;1.00
9410;DHT22;4744;52.576;13.568;2023-07-22T08:02:55;17.20;1.00
9410;DHT22;4744;52.576;13.568;2023-07-22T08:05:22;17.30;1.00
9410;DHT22;4744;52.576;13.568;2023-07-22T08:07:49;17.30;1.00
9410;DHT22;4744;52.576;13.568;2023-07-22T08:10:16;17.30;1.00
9410;DHT22;4744;52.576;13.568;2023-07-22T08:12:43;17.40;1.00
9410;DHT22;4744;52.576;13.568;2023-07-22T08:15:12;17.40;1.00
9410;DHT22;4744;52.576;13.568;2023-07-22T08:17:38;17.40;1.00
9410;DHT22;4744;52.576;13.568;2023-07-22T08:20:07;17.40;1.00
9410;DHT22;4744;52.576;13.568;2023-07-22T08:22:34;17.30;1.00
9410;DHT22;4744;52.576;13.568;2023-07-22T08:25:03;17.40;1.00
9410;DHT22;4744;52.576;13.568;2023-07-22T08:27:30;17.40;1.00
9410;DHT22;4744;52.576;13.568;2023-07-22T08:29:57;17.50;1.00
9410;DHT22;4744;52.576;13.568;2023-07-22T08:32:25;17.50;1.00
9410;DHT22;4744;52.576;13.568;2023-07-22T08:34:52;17.50;1.00
9410;DHT22;4744;52.576;13.568;2023-07-22T08:37:19;17.50;1.00
9410;DHT22;4744;52.576;13.568;2023-07-22T08:39:46;17.50;1.00
9410;DHT22;4744;52.576;13.568;2023-07-22T08:42:13;17.60;1.00
9410;DHT22;4744;52.576;13.568;2023-07-22T08:44:43;17.60;1.00
9410;DHT22;4744;52.576;13.568;2023-07-22T08:47:15;17.60;1.00
9410;DHT22;4744;52.576;13.568;2023-07-22T08:49:48;17.70;1.00
9410;DHT22;4744;52.576;13.568;2023-07-22T08:52:17;17.70;1.00
9410;DHT22;4744;52.576;13.568;2023-07-22T08:54:45;17.60;1.00
9410;DHT22;4744;52.576;13.568;2023-07-22T08:57:12;17.60;1.00
9410;DHT22;4744;52.576;13.568;2023-07-22T08:59:40;17.70;1.00
9410;DHT22;4744;52.576;13.568;2023-07-22T09:02:11;17.80;1.00
9410;DHT22;4744;52.576;13.568;2023-07-22T09:04:40;17.80;1.00
9410;DHT22;4744;52.576;13.568;2023-07-22T09:07:10;17.80;1.00
9410;DHT22;4744;52.576;13.568;2023-07-22T09:09:38;17.70;1.00
9410;DHT22;4744;52.576;13.568;2023-07-22T09:12:07;17.80;1.00
9410;DHT22;4744;52.576;13.568;2023-07-22T09:14:35;17.90;1.00
9410;DHT22;4744;52.576;13.568;2023-07-22T09:17:08;18.00;1.00
9410;DHT22;4744;52.576;13.568;2023-07-22T09:19:35;18.10;1.00
9410;DHT22;4744;52.576;13.568;2023-07-22T09:22:03;18.30;1.00
9410;DHT22;4744;52.576;13.568;2023-07-22T09:24:32;18.50;1.00
9410;DHT22;4744;52.576;13.568;2023-07-22T09:27:00;18.60;1.00
9410;DHT22;4744;52.576;13.568;2023-07-22T09:29:34;18.60;1.00
9410;DHT22;4744;52.576;13.568;2023-07-22T09:32:01;18.70;1.00
9410;DHT22;4744;52.576;13.568;2023-07-22T09:34:29;18.70;1.00
9410;DHT22;4744;52.576;13.568;2023-07-22T09:36:58;18.60;1.00
9410;DHT22;4744;52.576;13.568;2023-07-22T09:39:26;18.70;1.00
9410;DHT22;4744;52.576;13.568;2023-07-22T09:41:55;18.80;1.00
9410;DHT22;4744;52.576;13.568;2023-07-22T09:44:22;18.90;1.00
9410;DHT22;4744;52.576;13.568;2023-07-22T09:46:49;19.00;1.00
9410;DHT22;4744;52.576;13.568;2023-07-22T09:49:17;19.10;1.00
9410;DHT22;4744;52.576;13.568;2023-07-22T09:51:44;19.20;1.00
9410;DHT22;4744;52.576;13.568;2023-07-22T09:54:11;19.30;1.00
9410;DHT22;4744;52.576;13.568;2023-07-22T09:56:45;19.30;1.00
9410;DHT22;4744;52.576;13.568;2023-07-22T09:59:14;19.40;1.00
9410;DHT22;4744;52.576;13.568;2023-07-22T10:01:43;19.30;1.00
9410;DHT22;4744;52.576;13.568;2023-07-22T10:04:13;19.30;1.00
9410;DHT22;4744;52.576;13.568;2023-07-22T10:06:43;19.30;1.00
9410;DHT22;4744;52.576;13.568;2023-07-22T10:09:11;19.20;1.00
9410;DHT22;4744;52.576;13.568;2023-07-22T10:11:39;19.30;1.00
9410;DHT22;4744;52.576;13.568;2023-07-22T10:14:06;19.30;1.00
9410;DHT22;4744;52.576;13.568;2023-07-22T10:16:36;19.40;1.00
9410;DHT22;4744;52.576;13.568;2023-07-22T10:19:04;19.40;1.00
9410;DHT22;4744;52.576;13.568;2023-07-22T10:21:32;19.40;1.00
9410;DHT22;4744;52.576;13.568;2023-07-22T10:24:02;19.30;1.00
9410;DHT22;4744;52.576;13.568;2023-07-22T10:26:29;19.20;1.00
9410;DHT22;4744;52.576;13.568;2023-07-22T10:28:57;19.00;1.00
9410;DHT22;4744;52.576;13.568;2023-07-22T10:31:25;19.00;1.00
9410;DHT22;4744;52.576;13.568;2023-07-22T10:33:53;19.00;1.00
9410;DHT22;4744;52.576;13.568;2023-07-22T10:36:20;19.10;1.00
9410;DHT22;4744;52.576;13.568;2023-07-22T10:38:55;19.20;1.00
9410;DHT22;4744;52.576;13.568;2023-07-22T10:41:22;19.30;1.00
9410;DHT22;4744;52.576;13.568;2023-07-22T10:43:54;19.60;1.00
9410;DHT22;4744;52.576;13.568;2023-07-22T10:46:31;19.90;1.00
9410;DHT22;4744;52.576;13.568;2023-07-22T10:49:09;20.10;1.00
9410;DHT22;4744;52.576;13.568;2023-07-22T10:51:38;20.30;1.00
9410;DHT22;4744;52.576;13.568;2023-07-22T10:54:11;20.30;1.00
9410;DHT22;4744;52.576;13.568;2023-07-22T10:56:38;20.50;1.00
9410;DHT22;4744;52.576;13.568;2023-07-22T10:59:05;20.80;1.00
9410;DHT22;4744;52.576;13.568;2023-07-22T11:01:36;21.00;1.00
9410;DHT22;4744;52.576;13.568;2023-07-22T11:04:10;21.20;1.00
9410;DHT22;4744;52.576;13.568;2023-07-22T11:06:40;21.30;1.00
9410;DHT22;4744;52.576;13.568;2023-07-22T11:09:35;21.10;1.00
9410;DHT22;4744;52.576;13.568;2023-07-22T11:12:04;21.10;1.00
9410;DHT22;4744;52.576;13.568;2023-07-22T11:14:32;21.20;1.00
9410;DHT22;4744;52.576;13.568;2023-07-22T11:17:00;21.40;1.00
9410;DHT22;4744;52.576;13.568;2023-07-22T11:19:31;21.50;1.00
9410;DHT22;4744;52.576;13.568;2023-07-22T11:21:59;21.80;1.00
9410;DHT22;4744;52.576;13.568;2023-07-22T11:24:26;22.10;1.00
9410;DHT22;4744;52.576;13.568;2023-07-22T11:26:54;22.20;1.00
9410;DHT22;4744;52.576;13.568;2023-07-22T11:29:21;22.00;1.00
9410;DHT22;4744;52.576;13.568;2023-07-22T11:31:49;21.60;1.00
9410;DHT22;4744;52.576;13.568;2023-07-22T11:34:18;21.30;1.00
9410;DHT22;4744;52.576;13.568;2023-07-22T11:36:47;21.00;1.00
9410;DHT22;4744;52.576;13.568;2023-07-22T11:39:16;21.10;1.00
9410;DHT22;4744;52.576;13.568;2023-07-22T11:41:44;21.10;1.00
9410;DHT22;4744;52.576;13.568;2023-07-22T11:44:13;21.00;1.00
9410;DHT22;4744;52.576;13.568;2023-07-22T11:46:58;20.90;1.00
9410;DHT22;4744;52.576;13.568;2023-07-22T11:49:28;20.70;1.00
9410;DHT22;4744;52.576;13.568;2023-07-22T11:51:58;20.50;1.00
9410;DHT22;4744;52.576;13.568;2023-07-22T11:54:26;20.30;1.00
9410;DHT22;4744;52.576;13.568;2023-07-22T11:56:54;20.30;1.00
9410;DHT22;4744;52.576;13.568;2023-07-22T11:59:37;20.20;1.00
9410;DHT22;4744;52.576;13.568;2023-07-22T12:02:05;20.20;1.00
9410;DHT22;4744;52.576;13.568;2023-07-22T12:04:33;20.30;1.00
9410;DHT22;4744;52.576;13.568;2023-07-22T12:07:02;20.40;1.00
9410;DHT22;4744;52.576;13.568;2023-07-22T12:09:30;20.40;1.00
9410;DHT22;4744;52.576;13.568;2023-07-22T12:11:58;20.30;1.00
9410;DHT22;4744;52.576;13.568;2023-07-22T12:14:33;20.20;1.00
9410;DHT22;4744;52.576;13.568;2023-07-22T12:17:01;20.20;1.00
9410;DHT22;4744;52.576;13.568;2023-07-22T12:19:28;20.10;1.00
9410;DHT22;4744;52.576;13.568;2023-07-22T12:21:55;20.10;1.00
9410;DHT22;4744;52.576;13.568;2023-07-22T12:24:24;20.10;1.00
9410;DHT22;4744;52.576;13.568;2023-07-22T12:26:51;20.10;1.00
9410;DHT22;4744;52.576;13.568;2023-07-22T12:29:18;20.20;1.00
9410;DHT22;4744;52.576;13.568;2023-07-22T12:31:45;20.20;1.00
9410;DHT22;4744;52.576;13.568;2023-07-22T12:34:12;20.20;1.00
9410;DHT22;4744;52.576;13.568;2023-07-22T12:36:40;20.20;1.00
9410;DHT22;4744;52.576;13.568;2023-07-22T12:39:07;20.10;1.00
9410;DHT22;4744;52.576;13.568;2023-07-22T12:41:35;20.10;1.00
9410;DHT22;4744;52.576;13.568;2023-07-22T12:44:02;20.20;1.00
9410;DHT22;4744;52.576;13.568;2023-07-22T12:46:30;20.50;1.00
9410;DHT22;4744;52.576;13.568;2023-07-22T12:48:56;20.60;1.00
9410;DHT22;4744;52.576;13.568;2023-07-22T12:51:23;20.60;1.00
9410;DHT22;4744;52.576;13.568;2023-07-22T12:53:50;20.60;1.00
9410;DHT22;4744;52.576;13.568;2023-07-22T12:56:17;20.70;1.00
9410;DHT22;4744;52.576;13.568;2023-07-22T12:58:46;20.70;1.00
9410;DHT22;4744;52.576;13.568;2023-07-22T13:01:13;20.80;1.00
9410;DHT22;4744;52.576;13.568;2023-07-22T13:03:39;21.00;1.00
9410;DHT22;4744;52.576;13.568;2023-07-22T13:06:06;21.10;1.00
9410;DHT22;4744;52.576;13.568;2023-07-22T13:08:33;21.30;1.00
9410;DHT22;4744;52.576;13.568;2023-07-22T13:11:00;21.50;1.00
9410;DHT22;4744;52.576;13.568;2023-07-22T13:13:27;21.70;1.00
9410;DHT22;4744;52.576;13.568;2023-07-22T13:15:55;21.80;1.00
9410;DHT22;4744;52.576;13.568;2023-07-22T13:18:22;21.60;1.00
9410;DHT22;4744;52.576;13.568;2023-07-22T13:20:49;21.60;1.00
9410;DHT22;4744;52.576;13.568;2023-07-22T13:23:16;21.60;1.00
9410;DHT22;4744;52.576;13.568;2023-07-22T13:25:43;21.60;1.00
9410;DHT22;4744;52.576;13.568;2023-07-22T13:28:10;21.60;1.00
9410;DHT22;4744;52.576;13.568;2023-07-22T13:30:37;21.60;1.00
9410;DHT22;4744;52.576;13.568;2023-07-22T13:33:05;21.80;1.00
9410;DHT22;4744;52.576;13.568;2023-07-22T13:35:32;21.90;1.00
9410;DHT22;4744;52.576;13.568;2023-07-22T13:37:59;21.90;1.00
9410;DHT22;4744;52.576;13.568;2023-07-22T13:40:26;22.10;1.00
9410;DHT22;4744;52.576;13.568;2023-07-22T13:42:53;22.10;1.00
9410;DHT22;4744;52.576;13.568;2023-07-22T13:45:20;22.20;1.00
9410;DHT22;4744;52.576;13.568;2023-07-22T13:47:47;22.10;1.00
9410;DHT22;4744;52.576;13.568;2023-07-22T13:50:15;22.10;1.00
9410;DHT22;4744;52.576;13.568;2023-07-22T13:52:42;22.10;1.00
9410;DHT22;4744;52.576;13.568;2023-07-22T13:55:09;22.00;1.00
9410;DHT22;4744;52.576;13.568;2023-07-22T13:57:36;21.90;1.00
9410;DHT22;4744;52.576;13.568;2023-07-22T14:00:03;21.80;1.00
9410;DHT22;4744;52.576;13.568;2023-07-22T14:02:34;21.80;1.00
9410;DHT22;4744;52.576;13.568;2023-07-22T14:05:01;21.80;1.00
9410;DHT22;4744;52.576;13.568;2023-07-22T14:07:29;22.00;1.00
9410;DHT22;4744;52.576;13.568;2023-07-22T14:09:56;22.00;1.00
9410;DHT22;4744;52.576;13.568;2023-07-22T14:12:23;21.90;1.00
9410;DHT22;4744;52.576;13.568;2023-07-22T14:14:50;21.80;1.00
9410;DHT22;4744;52.576;13.568;2023-07-22T14:17:17;21.60;1.00
9410;DHT22;4744;52.576;13.568;2023-07-22T14:19:43;21.50;1.00
9410;DHT22;4744;52.576;13.568;2023-07-22T14:22:10;21.40;1.00
9410;DHT22;4744;52.576;13.568;2023-07-22T14:24:39;21.30;1.00
9410;DHT22;4744;52.576;13.568;2023-07-22T14:27:06;21.30;1.00
9410;DHT22;4744;52.576;13.568;2023-07-22T14:29:33;21.30;1.00
9410;DHT22;4744;52.576;13.568;2023-07-22T14:32:00;21.30;1.00
9410;DHT22;4744;52.576;13.568;2023-07-22T14:34:27;21.40;1.00
9410;DHT22;4744;52.576;13.568;2023-07-22T14:36:54;21.40;1.00
9410;DHT22;4744;52.576;13.568;2023-07-22T14:39:21;21.50;1.00
9410;DHT22;4744;52.576;13.568;2023-07-22T14:41:49;21.50;1.00
9410;DHT22;4744;52.576;13.568;2023-07-22T14:44:16;21.40;1.00
9410;DHT22;4744;52.576;13.568;2023-07-22T14:46:43;21.30;1.00
9410;DHT22;4744;52.576;13.568;2023-07-22T14:49:10;21.30;1.00
9410;DHT22;4744;52.576;13.568;2023-07-22T14:51:37;21.20;1.00
9410;DHT22;4744;52.576;13.568;2023-07-22T14:54:04;21.20;1.00
9410;DHT22;4744;52.576;13.568;2023-07-22T14:56:31;21.10;1.00
9410;DHT22;4744;52.576;13.568;2023-07-22T14:58:59;21.10;1.00
9410;DHT22;4744;52.576;13.568;2023-07-22T15:01:26;21.10;1.00
9410;DHT22;4744;52.576;13.568;2023-07-22T15:03:53;21.10;1.00
9410;DHT22;4744;52.576;13.568;2023-07-22T15:06:21;21.10;1.00
9410;DHT22;4744;52.576;13.568;2023-07-22T15:08:48;21.10;1.00
9410;DHT22;4744;52.576;13.568;2023-07-22T15:11:15;21.10;1.00
9410;DHT22;4744;52.576;13.568;2023-07-22T15:13:41;21.10;1.00
9410;DHT22;4744;52.576;13.568;2023-07-22T15:16:10;21.10;1.00
9410;DHT22;4744;52.576;13.568;2023-07-22T15:18:37;21.00;1.00
9410;DHT22;4744;52.576;13.568;2023-07-22T15:21:03;20.90;1.00
9410;DHT22;4744;52.576;13.568;2023-07-22T15:23:30;20.90;1.00
9410;DHT22;4744;52.576;13.568;2023-07-22T15:25:58;20.80;1.00
9410;DHT22;4744;52.576;13.568;2023-07-22T15:28:25;20.80;1.00
9410;DHT22;4744;52.576;13.568;2023-07-22T15:30:53;20.80;1.00
9410;DHT22;4744;52.576;13.568;2023-07-22T15:33:22;20.80;1.00
9410;DHT22;4744;52.576;13.568;2023-07-22T15:35:48;20.90;1.00
9410;DHT22;4744;52.576;13.568;2023-07-22T15:38:16;20.90;1.00
9410;DHT22;4744;52.576;13.568;2023-07-22T15:40:42;21.00;1.00
9410;DHT22;4744;52.576;13.568;2023-07-22T15:43:10;21.00;1.00
9410;DHT22;4744;52.576;13.568;2023-07-22T15:45:37;21.00;1.00
9410;DHT22;4744;52.576;13.568;2023-07-22T15:48:04;21.00;1.00
9410;DHT22;4744;52.576;13.568;2023-07-22T15:50:33;21.00;1.00
9410;DHT22;4744;52.576;13.568;2023-07-22T15:53:00;21.00;1.00
9410;DHT22;4744;52.576;13.568;2023-07-22T15:55:27;21.00;1.00
9410;DHT22;4744;52.576;13.568;2023-07-22T15:57:53;21.00;1.00
9410;DHT22;4744;52.576;13.568;2023-07-22T16:00:20;21.10;1.00
9410;DHT22;4744;52.576;13.568;2023-07-22T16:02:48;21.20;1.00
9410;DHT22;4744;52.576;13.568;2023-07-22T16:05:15;21.40;1.00